地図

経路データ

SID SEASON NUMBER BASIN SUBBASIN NAME ISO_TIME NATURE LAT LON WMO_WIND WMO_PRES WMO_AGENCY TRACK_TYPE DIST2LAND LANDFALL IFLAG USA_AGENCY USA_ATCF_ID USA_LAT USA_LON USA_RECORD USA_STATUS USA_WIND USA_PRES USA_SSHS USA_R34_NE USA_R34_SE USA_R34_SW USA_R34_NW USA_R50_NE USA_R50_SE USA_R50_SW USA_R50_NW USA_R64_NE USA_R64_SE USA_R64_SW USA_R64_NW USA_POCI USA_ROCI USA_RMW USA_EYE TOKYO_LAT TOKYO_LON TOKYO_GRADE TOKYO_WIND TOKYO_PRES TOKYO_R50_DIR TOKYO_R50_LONG TOKYO_R50_SHORT TOKYO_R30_DIR TOKYO_R30_LONG TOKYO_R30_SHORT TOKYO_LAND CMA_LAT CMA_LON CMA_CAT CMA_WIND CMA_PRES HKO_LAT HKO_LON HKO_CAT HKO_WIND HKO_PRES NEWDELHI_LAT NEWDELHI_LON NEWDELHI_GRADE NEWDELHI_WIND NEWDELHI_PRES NEWDELHI_CI NEWDELHI_DP NEWDELHI_POCI REUNION_LAT REUNION_LON REUNION_TYPE REUNION_WIND REUNION_PRES REUNION_TNUM REUNION_CI REUNION_RMW REUNION_R34_NE REUNION_R34_SE REUNION_R34_SW REUNION_R34_NW REUNION_R50_NE REUNION_R50_SE REUNION_R50_SW REUNION_R50_NW REUNION_R64_NE REUNION_R64_SE REUNION_R64_SW REUNION_R64_NW BOM_LAT BOM_LON BOM_TYPE BOM_WIND BOM_PRES BOM_TNUM BOM_CI BOM_RMW BOM_R34_NE BOM_R34_SE BOM_R34_SW BOM_R34_NW BOM_R50_NE BOM_R50_SE BOM_R50_SW BOM_R50_NW BOM_R64_NE BOM_R64_SE BOM_R64_SW BOM_R64_NW BOM_ROCI BOM_POCI BOM_EYE BOM_POS_METHOD BOM_PRES_METHOD NADI_LAT NADI_LON NADI_CAT NADI_WIND NADI_PRES WELLINGTON_LAT WELLINGTON_LON WELLINGTON_WIND WELLINGTON_PRES DS824_LAT DS824_LON DS824_STAGE DS824_WIND DS824_PRES TD9636_LAT TD9636_LON TD9636_STAGE TD9636_WIND TD9636_PRES TD9635_LAT TD9635_LON TD9635_WIND TD9635_PRES TD9635_ROCI NEUMANN_LAT NEUMANN_LON NEUMANN_CLASS NEUMANN_WIND NEUMANN_PRES MLC_LAT MLC_LON MLC_CLASS MLC_WIND MLC_PRES USA_GUST BOM_GUST BOM_GUST_PER REUNION_GUST REUNION_GUST_PER USA_SEAHGT USA_SEARAD_NE USA_SEARAD_SE USA_SEARAD_SW USA_SEARAD_NW STORM_SPEED STORM_DIR
1893208N19127 1893 23 WP MM NOT_NAMED 1893-07-26 16:00:00 NR 19.0000 127.400 main 541 541 __________O___ -1 19.0000 127.400 7 1 273
1893208N19127 1893 23 WP MM NOT_NAMED 1893-07-26 18:00:00 NR 19.0023 127.355 main 541 530 __________P___ -1 19.0023 127.355 7 2 275
1893208N19127 1893 23 WP MM NOT_NAMED 1893-07-26 21:00:00 NR 19.0112 127.267 main 530 510 __________P___ -1 19.0112 127.267 7 2 278
1893208N19127 1893 23 WP MM NOT_NAMED 1893-07-27 00:00:00 NR 19.0339 127.126 main 510 490 __________P___ -1 19.0339 127.126 7 4 281
1893208N19127 1893 23 WP MM NOT_NAMED 1893-07-27 03:00:00 NR 19.0788 126.900 main 490 480 __________P___ -1 19.0788 126.900 7 5 282
1893208N19127 1893 23 WP MM NOT_NAMED 1893-07-27 04:00:00 NR 19.1000 126.800 main 480 459 __________O___ -1 19.1000 126.800 7 7 283
1893208N19127 1893 23 WP MM NOT_NAMED 1893-07-27 06:00:00 NR 19.1531 126.561 main 461 412 __________P___ -1 19.1531 126.561 7 8 284
1893208N19127 1893 23 WP MM NOT_NAMED 1893-07-27 09:00:00 NR 19.2575 126.126 main 412 364 __________P___ -1 19.2575 126.126 7 9 285
1893208N19127 1893 23 WP MM NOT_NAMED 1893-07-27 12:00:00 NR 19.3887 125.642 main 364 328 __________P___ -1 19.3887 125.642 7 10 287
1893208N19127 1893 23 WP MM NOT_NAMED 1893-07-27 15:00:00 NR 19.5436 125.155 main 328 314 __________P___ -1 19.5436 125.155 7 10 289
1893208N19127 1893 23 WP MM NOT_NAMED 1893-07-27 16:00:00 NR 19.6000 125.000 main 314 291 __________O___ -1 19.6000 125.000 7 9 293
1893208N19127 1893 23 WP MM NOT_NAMED 1893-07-27 18:00:00 NR 19.7160 124.722 main 291 268 __________P___ -1 19.7160 124.722 7 8 296
1893208N19127 1893 23 WP MM NOT_NAMED 1893-07-27 21:00:00 NR 19.9091 124.325 main 268 260 __________P___ -1 19.9091 124.325 7 8 299
1893208N19127 1893 23 WP MM NOT_NAMED 1893-07-28 00:00:00 NR 20.1168 123.952 main 260 249 __________P___ -1 20.1168 123.952 7 8 302
1893208N19127 1893 23 WP MM NOT_NAMED 1893-07-28 03:00:00 NR 20.3296 123.608 main 252 252 __________P___ -1 20.3296 123.608 7 8 304
1893208N19127 1893 23 WP MM NOT_NAMED 1893-07-28 04:00:00 NR 20.4000 123.500 main 256 251 __________O___ -1 20.4000 123.500 3 7 304
1893208N19127 1893 23 WP MM NOT_NAMED 1893-07-28 06:00:00 NR 20.5278 123.293 main 257 255 __________P___ -1 20.5278 123.293 3 7 305
1893208N19127 1893 23 WP MM NOT_NAMED 1893-07-28 09:00:00 NR 20.7196 123.009 main 255 217 __________P___ -1 20.7196 123.009 3 6 307
1893208N19127 1893 23 WP MM NOT_NAMED 1893-07-28 12:00:00 NR 20.9171 122.744 main 217 188 __________P___ -1 20.9171 122.744 3 6 310
1893208N19127 1893 23 WP MM NOT_NAMED 1893-07-28 15:00:00 NR 21.1265 122.487 main 188 173 __________P___ -1 21.1265 122.487 3 6 311
1893208N19127 1893 23 WP MM NOT_NAMED 1893-07-28 16:00:00 NR 21.2000 122.400 main 173 150 __________O___ -1 21.2000 122.400 4 7 311
1893208N19127 1893 23 WP MM NOT_NAMED 1893-07-28 18:00:00 NR 21.3447 122.214 main 150 108 __________P___ -1 21.3447 122.214 4 7 311
1893208N19127 1893 23 WP MM NOT_NAMED 1893-07-28 21:00:00 NR 21.5742 121.935 main 108 83 __________P___ -1 21.5742 121.935 4 7 313
1893208N19127 1893 23 WP MM NOT_NAMED 1893-07-29 00:00:00 NR 21.8241 121.658 main 83 51 __________P___ -1 21.8241 121.658 4 7 316
1893208N19127 1893 23 WP MM NOT_NAMED 1893-07-29 03:00:00 NR 22.1008 121.388 main 51 41 __________P___ -1 22.1008 121.388 4 8 319
1893208N19127 1893 23 WP MM NOT_NAMED 1893-07-29 04:00:00 NR 22.2000 121.300 main 41 20 __________O___ -1 22.2000 121.300 4 8 320
1893208N19127 1893 23 WP MM NOT_NAMED 1893-07-29 06:00:00 NR 22.3947 121.120 main 20 0 __________P___ -1 22.3947 121.120 4 8 321
1893208N19127 1893 23 WP MM NOT_NAMED 1893-07-29 09:00:00 NR 22.7118 120.855 main 0 0 __________P___ -1 22.7118 120.855 4 8 325
1893208N19127 1893 23 WP MM NOT_NAMED 1893-07-29 12:00:00 NR 23.0642 120.604 main 0 0 __________P___ -1 23.0642 120.604 4 9 329
1893208N19127 1893 23 WP MM NOT_NAMED 1893-07-29 15:00:00 NR 23.4583 120.372 main 0 0 __________P___ -1 23.4583 120.372 4 9 333
1893208N19127 1893 23 WP MM NOT_NAMED 1893-07-29 16:00:00 NR 23.6000 120.300 main 0 0 __________O___ -1 23.6000 120.300 4 10 337
1893208N19127 1893 23 WP MM NOT_NAMED 1893-07-29 18:00:00 NR 23.8994 120.165 main 10 10 __________P___ -1 23.8994 120.165 4 10 340
1893208N19127 1893 23 WP MM NOT_NAMED 1893-07-29 21:00:00 NR 24.3820 119.981 main 52 49 __________P___ -1 24.3820 119.981 4 11 342
1893208N19127 1893 23 WP MM NOT_NAMED 1893-07-30 00:00:00 NR 24.8939 119.813 main 49 0 __________P___ -1 24.8939 119.813 4 11 344
1893208N19127 1893 23 WP MM NOT_NAMED 1893-07-30 03:00:00 NR 25.4223 119.653 main 0 0 __________P___ -1 25.4223 119.653 4 11 345
1893208N19127 1893 23 WP MM NOT_NAMED 1893-07-30 04:00:00 NR 25.6000 119.600 main 10 __________O___ -1 25.6000 119.600 4 11 348

デジタル台風データ・検索

IBTrACS Databaseについて

本データベースは、米国NOAAが公開する1842年以降の世界の熱帯低気圧のベストトラックデータアーカイブInternational Best Track Archive for Climate Stewardship (IBTrACS)を、ウェブで閲覧しやすい形式に変換したものです。

最終更新日:2021-11-26